LiveATC.Net - Listen to live air traffic control over the Internet! Contact LiveATC.net for advertising information


ICAO: CYYC  IATA: YYC   Airport: Calgary International Airport
City: Calgary   State/Province: Alberta
Country: Canada   Continent: North America
CYYC METAR Weather: CYYC 020800Z 16011KT 15SM BKN250 17/12 A3021 RMK CI6 SLP220 DENSITY ALT 4300FT
CYYC Flight Activity (FlightAware)
CYYC Twr/App/Center
Feed Status: DOWN
Last heard on: 2014-07-23 09:12:03 (9 days 23 hours 25 minutes ago)
CYYC Twr/App/Center Audio Archives
FacilityFrequency
Calgary Arrivals125.900
Calgary Departures119.800
Calgary Tower118.400
Edmonton Center (Banff Sector)133.300


NOTICE

Unauthorized use prohibited. See LiveATC.net Terms of Service


Find LiveATC Audio Streams


Airport/ARTCC Code

Frequency
(e.g., 124.400, 128.75)
Site-wide search

Browse LiveATC Feeds
LiveATC Coverage Map
Top 50 LiveATC Feeds
Bad Weather Areas

LiveATC FAQ
Offer a LiveATC Feed
Contact LiveATC.net
Press Inquiries

LiveATC on iPhone
LiveATC on Android

LiveATC Mobile
(Mobile browser)

ATC Audio Archives
Interesting Recordings

LiveATC Forums


Home Page
About LiveATC.net
Make a Donation
LiveATC Bookstore

Terms of Use
Privacy Policy

ATC/Radar Sites
U.S. ARTCC Freqs
Canadian Air Freqs

AIRMETs/SIGMETs

FAA Airport Status
Nat'l Airspace Status
Arrival Demand Charts


Server Software By:
Icecast.org
Liquidsoap

Please make a donation to help us keep growing!